createdAt,value
2018-12-17T00:00:12.920Z,61.47
2018-12-17T00:02:42.233Z,54.80
2018-12-17T00:05:11.315Z,77.13
2018-12-17T00:07:40.710Z,74.57
2018-12-17T00:10:09.865Z,69.53
2018-12-17T00:12:38.808Z,63.07
2018-12-17T00:15:09.483Z,71.23
2018-12-17T00:17:38.528Z,69.13
2018-12-17T00:20:08.921Z,61.00
2018-12-17T00:22:38.395Z,55.47
2018-12-17T00:25:08.567Z,55.70
2018-12-17T00:27:37.586Z,86.50
2018-12-17T00:30:08.072Z,95.63
2018-12-17T00:32:37.117Z,76.70
2018-12-17T00:35:06.387Z,85.80
2018-12-17T00:37:35.520Z,64.93
2018-12-17T00:40:06.286Z,62.70
2018-12-17T00:42:35.346Z,75.20
2018-12-17T00:45:05.158Z,67.83
2018-12-17T00:47:34.124Z,63.97
2018-12-17T00:50:03.258Z,63.77
2018-12-17T00:52:32.417Z,64.40
2018-12-17T00:55:01.920Z,58.53
2018-12-17T00:57:31.081Z,72.43
2018-12-17T00:59:59.990Z,60.00
2018-12-17T01:02:29.215Z,67.00
2018-12-17T01:04:59.728Z,59.13
2018-12-17T01:07:30.649Z,67.40
2018-12-17T01:09:59.862Z,75.47
2018-12-17T01:12:28.993Z,72.60
2018-12-17T01:14:57.945Z,67.50
2018-12-17T01:17:26.913Z,66.33
2018-12-17T01:19:55.948Z,69.10
2018-12-17T01:22:25.308Z,69.40
2018-12-17T01:24:54.389Z,68.57
2018-12-17T01:27:25.059Z,65.37
2018-12-17T01:29:54.136Z,67.93
2018-12-17T01:32:23.139Z,68.43
2018-12-17T01:34:52.122Z,61.63
2018-12-17T01:37:21.059Z,65.77
2018-12-17T01:39:50.325Z,64.93
2018-12-17T01:42:19.811Z,71.27
2018-12-17T01:44:48.909Z,60.10
2018-12-17T01:47:17.927Z,64.50
2018-12-17T01:49:48.215Z,77.03
2018-12-17T01:52:17.248Z,64.33
2018-12-17T01:54:46.207Z,72.13
2018-12-17T01:57:15.204Z,75.57
2018-12-17T01:59:44.250Z,66.80
2018-12-17T02:02:13.529Z,76.77
2018-12-17T02:04:43.413Z,60.47
2018-12-17T02:07:12.460Z,64.23
2018-12-17T02:09:41.427Z,69.60
2018-12-17T02:12:10.376Z,65.17
2018-12-17T02:14:39.316Z,68.80
2018-12-17T02:17:08.425Z,63.57
2018-12-17T02:19:37.672Z,74.70
2018-12-17T02:22:07.056Z,61.80
2018-12-17T02:24:36.151Z,61.87
2018-12-17T02:27:05.383Z,66.20
2018-12-17T02:29:34.468Z,73.83
2018-12-17T02:32:03.612Z,59.20
2018-12-17T02:34:32.653Z,57.63
2018-12-17T02:37:01.847Z,59.57
2018-12-17T02:39:31.042Z,55.93
2018-12-17T02:42:00.053Z,60.77
2018-12-17T02:44:29.245Z,57.57
2018-12-17T02:46:58.160Z,51.97
2018-12-17T02:49:27.343Z,49.23
2018-12-17T02:51:56.358Z,55.93
2018-12-17T02:54:26.391Z,54.07
2018-12-17T02:56:55.403Z,61.80
2018-12-17T02:59:24.944Z,51.07
2018-12-17T03:01:54.101Z,52.40
2018-12-17T03:04:23.784Z,59.17
2018-12-17T03:06:52.877Z,55.90
2018-12-17T03:09:23.576Z,53.23
2018-12-17T03:11:52.758Z,56.70
2018-12-17T03:14:22.383Z,60.00
2018-12-17T03:16:51.333Z,55.17
2018-12-17T03:19:20.459Z,52.67
2018-12-17T03:21:49.626Z,56.07
2018-12-17T03:24:19.063Z,49.77
2018-12-17T03:26:48.409Z,61.70
2018-12-17T03:29:17.430Z,62.03
2018-12-17T03:31:46.701Z,54.60
2018-12-17T03:34:15.880Z,59.33
2018-12-17T03:36:44.836Z,62.30
2018-12-17T03:39:14.021Z,52.37
2018-12-17T03:41:43.109Z,65.63
2018-12-17T03:44:12.149Z,57.03
2018-12-17T03:46:41.383Z,51.10
2018-12-17T03:49:10.743Z,56.87
2018-12-17T03:51:40.296Z,58.77
2018-12-17T03:54:09.347Z,55.33
2018-12-17T03:56:38.478Z,58.63
2018-12-17T03:59:07.479Z,61.00
2018-12-17T04:01:36.445Z,54.93
2018-12-17T04:04:05.531Z,52.10
2018-12-17T04:06:34.508Z,50.03
2018-12-17T04:09:05.830Z,56.70
2018-12-17T04:11:34.997Z,67.67
2018-12-17T04:14:04.416Z,56.43
2018-12-17T04:16:33.637Z,65.77
2018-12-17T04:19:03.008Z,61.37
2018-12-17T04:21:31.950Z,57.10
2018-12-17T04:24:00.947Z,56.33
2018-12-17T04:26:30.012Z,54.33
2018-12-17T04:29:06.642Z,53.43
2018-12-17T04:31:30.602Z,55.37
2018-12-17T04:33:59.861Z,59.07
2018-12-17T04:36:28.947Z,63.80
2018-12-17T04:38:58.087Z,66.83
2018-12-17T04:41:27.119Z,69.77
2018-12-17T04:43:56.236Z,65.30
2018-12-17T04:46:25.533Z,55.37
2018-12-17T04:48:54.597Z,53.00
2018-12-17T04:51:23.839Z,52.27
2018-12-17T04:53:52.915Z,59.80
2018-12-17T04:56:22.018Z,55.13
2018-12-17T04:58:51.059Z,58.77
2018-12-17T05:01:20.201Z,66.27
2018-12-17T05:03:49.269Z,60.97
2018-12-17T05:06:18.519Z,57.00
2018-12-17T05:08:48.248Z,49.70
2018-12-17T05:11:17.306Z,47.57
2018-12-17T05:13:46.244Z,48.70
2018-12-17T05:16:17.682Z,52.07
2018-12-17T05:18:46.766Z,56.37
2018-12-17T05:21:15.775Z,46.80
2018-12-17T05:23:44.883Z,58.17
2018-12-17T05:26:13.977Z,64.10
2018-12-17T05:28:43.058Z,58.30
2018-12-17T05:31:12.167Z,62.03
2018-12-17T05:33:41.218Z,68.27
2018-12-17T05:36:10.393Z,70.17
2018-12-17T05:38:39.438Z,60.93
2018-12-17T05:41:08.432Z,81.43
2018-12-17T05:43:38.729Z,61.13
2018-12-17T05:46:08.055Z,65.20
2018-12-17T05:48:37.203Z,64.07
2018-12-17T05:51:06.525Z,59.50
2018-12-17T05:53:35.531Z,69.03
2018-12-17T05:56:04.743Z,60.93
2018-12-17T05:58:33.718Z,66.73
2018-12-17T06:01:03.037Z,66.60
2018-12-17T06:03:32.440Z,57.90
2018-12-17T06:06:01.691Z,63.40
2018-12-17T06:08:30.724Z,59.30
2018-12-17T06:10:59.925Z,63.57
2018-12-17T06:13:29.567Z,58.47
2018-12-17T06:15:58.595Z,53.63
2018-12-17T06:18:27.607Z,50.70
2018-12-17T06:20:57.245Z,55.57
2018-12-17T06:23:26.184Z,62.67
2018-12-17T06:25:55.533Z,57.10
2018-12-17T06:28:24.559Z,60.37
2018-12-17T06:30:54.475Z,59.97
2018-12-17T06:33:23.477Z,61.40
2018-12-17T06:35:52.933Z,51.07
2018-12-17T06:38:22.677Z,64.60
2018-12-17T06:40:51.746Z,55.13
2018-12-17T06:43:21.360Z,57.37
2018-12-17T06:45:50.331Z,47.80
2018-12-17T06:48:19.587Z,48.50
2018-12-17T06:50:48.605Z,39.67
2018-12-17T06:53:17.909Z,48.03
2018-12-17T06:55:47.136Z,54.10
2018-12-17T06:58:16.593Z,52.63
2018-12-17T07:00:46.250Z,54.93
2018-12-17T07:03:15.348Z,60.60
2018-12-17T07:05:44.615Z,57.07
2018-12-17T07:08:18.292Z,56.17
2018-12-17T07:10:49.361Z,56.83
2018-12-17T07:13:18.649Z,56.50
2018-12-17T07:15:47.926Z,58.47
2018-12-17T07:18:17.242Z,54.20
2018-12-17T07:20:46.418Z,65.83
2018-12-17T07:23:15.570Z,57.00
2018-12-17T07:25:46.072Z,60.37
2018-12-17T07:28:15.250Z,61.47
2018-12-17T07:30:44.902Z,62.53
2018-12-17T07:33:14.005Z,68.17
2018-12-17T07:35:43.459Z,68.13
2018-12-17T07:38:12.677Z,68.27
2018-12-17T07:40:41.770Z,64.93
2018-12-17T07:43:10.823Z,57.47
2018-12-17T07:45:39.955Z,68.27
2018-12-17T07:48:09.401Z,60.43
2018-12-17T07:50:38.618Z,65.37
2018-12-17T07:53:07.796Z,61.60
2018-12-17T07:55:37.307Z,54.33
2018-12-17T07:58:06.480Z,64.57
2018-12-17T08:00:36.044Z,64.13
2018-12-17T08:03:05.403Z,66.73
2018-12-17T08:05:34.704Z,56.73
2018-12-17T08:08:04.418Z,57.13
2018-12-17T08:10:33.802Z,61.87
2018-12-17T08:13:03.200Z,55.10
2018-12-17T08:15:32.615Z,54.83
2018-12-17T08:18:15.324Z,57.37
2018-12-17T08:20:44.585Z,53.87
2018-12-17T08:23:13.880Z,55.23
2018-12-17T08:25:43.317Z,55.33
2018-12-17T08:28:12.964Z,45.57
2018-12-17T08:30:42.343Z,51.83
2018-12-17T08:33:12.153Z,46.10
2018-12-17T08:35:41.455Z,50.80
2018-12-17T08:38:10.485Z,53.40
2018-12-17T08:40:39.988Z,52.07
2018-12-17T08:43:09.113Z,52.10
2018-12-17T08:45:38.368Z,48.97
2018-12-17T08:48:07.769Z,45.50
2018-12-17T08:50:36.936Z,54.13
2018-12-17T08:53:06.217Z,46.70
2018-12-17T08:55:35.245Z,47.63
2018-12-17T08:58:04.904Z,51.30
2018-12-17T09:00:34.539Z,54.23
2018-12-17T09:03:03.854Z,53.63
2018-12-17T09:05:33.349Z,55.33
2018-12-17T09:08:02.651Z,47.13
2018-12-17T09:10:32.354Z,48.43
2018-12-17T09:13:01.746Z,48.77
2018-12-17T09:15:30.873Z,46.63
2018-12-17T09:18:01.447Z,52.23
2018-12-17T09:20:30.768Z,46.00
2018-12-17T09:23:00.037Z,44.47
2018-12-17T09:25:30.059Z,51.23
2018-12-17T09:27:59.470Z,43.67
2018-12-17T09:30:29.019Z,49.10
2018-12-17T09:32:58.366Z,44.20
2018-12-17T09:35:27.739Z,48.73
2018-12-17T09:37:57.097Z,49.47
2018-12-17T09:40:27.678Z,42.60
2018-12-17T09:42:57.223Z,42.73
2018-12-17T09:45:30.146Z,46.47
2018-12-17T09:47:59.236Z,42.10
2018-12-17T09:50:28.825Z,44.47
2018-12-17T09:52:58.075Z,37.73
2018-12-17T09:55:27.209Z,44.87
2018-12-17T09:57:56.477Z,38.47
2018-12-17T10:00:25.870Z,37.90
2018-12-17T10:02:55.203Z,39.33
2018-12-17T10:05:24.697Z,35.03
2018-12-17T10:07:53.929Z,33.10
2018-12-17T10:10:23.264Z,29.33
2018-12-17T10:12:52.728Z,31.37
2018-12-17T10:15:21.729Z,29.70
2018-12-17T10:17:51.194Z,27.30
2018-12-17T10:20:20.473Z,28.03
2018-12-17T10:22:49.787Z,28.37
2018-12-17T10:25:18.835Z,28.57
2018-12-17T10:27:48.841Z,31.60
2018-12-17T10:30:18.125Z,30.90
2018-12-17T10:32:47.635Z,35.10
2018-12-17T10:35:17.028Z,29.57
2018-12-17T10:37:46.371Z,26.80
2018-12-17T10:40:15.633Z,22.17
2018-12-17T10:42:44.744Z,28.40
2018-12-17T10:45:14.234Z,21.87
2018-12-17T10:47:43.362Z,26.67
2018-12-17T10:50:13.595Z,23.83
2018-12-17T10:52:42.819Z,26.53
2018-12-17T10:55:12.219Z,24.50
2018-12-17T10:57:41.400Z,27.00
2018-12-17T11:00:17.445Z,26.97
2018-12-17T11:02:46.717Z,24.67
2018-12-17T11:05:17.769Z,23.27
2018-12-17T11:07:47.007Z,23.73
2018-12-17T11:10:16.536Z,26.27
2018-12-17T11:12:46.274Z,26.17
2018-12-17T11:15:15.805Z,24.37
2018-12-17T11:17:44.911Z,24.40
2018-12-17T11:20:14.306Z,22.07
2018-12-17T11:22:43.535Z,23.97
2018-12-17T11:25:12.831Z,27.93
2018-12-17T11:27:41.866Z,23.00
2018-12-17T11:30:12.931Z,24.93
2018-12-17T11:32:44.155Z,27.40
2018-12-17T11:35:13.673Z,25.03
2018-12-17T11:37:42.990Z,25.30
2018-12-17T11:40:12.290Z,25.63
2018-12-17T11:42:41.660Z,23.53
2018-12-17T11:45:10.957Z,22.00
2018-12-17T11:47:40.302Z,26.07
2018-12-17T11:50:09.786Z,21.20
2018-12-17T11:52:39.175Z,20.43
2018-12-17T11:55:08.451Z,18.37
2018-12-17T11:58:21.239Z,20.70
2018-12-17T12:01:03.295Z,16.33
2018-12-17T12:03:34.483Z,16.73
2018-12-17T12:06:04.151Z,15.70
2018-12-17T12:08:33.241Z,16.10
2018-12-17T12:11:02.419Z,14.50
2018-12-17T12:13:32.118Z,13.80
2018-12-17T12:16:01.511Z,14.40
2018-12-17T12:18:30.653Z,13.43
2018-12-17T12:20:59.952Z,15.80
2018-12-17T12:23:29.385Z,13.83
2018-12-17T12:25:58.474Z,17.17
2018-12-17T12:28:27.611Z,13.17
2018-12-17T12:31:00.442Z,13.87
2018-12-17T12:33:28.894Z,13.60
2018-12-17T12:35:58.060Z,14.53
2018-12-17T12:38:27.411Z,14.00
2018-12-17T12:40:56.770Z,12.20
2018-12-17T12:43:25.944Z,13.77
2018-12-17T12:45:55.510Z,13.23
2018-12-17T12:48:24.596Z,12.00
2018-12-17T12:50:53.685Z,11.03
2018-12-17T12:53:22.896Z,10.70
2018-12-17T12:55:52.786Z,10.77
2018-12-17T12:58:21.943Z,10.87
2018-12-17T13:00:51.186Z,10.90
2018-12-17T13:03:20.250Z,10.27
2018-12-17T13:05:49.421Z,11.33
2018-12-17T13:08:18.774Z,11.37
2018-12-17T13:10:49.001Z,11.20
2018-12-17T13:13:18.179Z,13.57
2018-12-17T13:15:47.461Z,11.17
2018-12-17T13:18:17.018Z,14.23
2018-12-17T13:20:46.297Z,13.13
2018-12-17T13:23:15.530Z,10.63
2018-12-17T13:25:48.298Z,12.77
2018-12-17T13:28:17.859Z,12.37
2018-12-17T13:30:47.338Z,12.97
2018-12-17T13:33:16.495Z,12.00
2018-12-17T13:35:45.619Z,12.37
2018-12-17T13:38:15.619Z,13.27
2018-12-17T13:40:45.034Z,13.60
2018-12-17T13:43:15.230Z,13.87
2018-12-17T13:45:51.033Z,13.47
2018-12-17T13:48:20.750Z,13.27
2018-12-17T13:50:51.683Z,13.70
2018-12-17T13:53:31.235Z,15.67
2018-12-17T13:56:00.547Z,12.80
2018-12-17T13:58:31.505Z,14.00
2018-12-17T14:01:00.762Z,15.00
2018-12-17T14:03:29.867Z,14.57
2018-12-17T14:05:59.218Z,18.10
2018-12-17T14:08:28.409Z,14.20
2018-12-17T14:10:57.712Z,14.73
2018-12-17T14:13:27.068Z,12.83
2018-12-17T14:16:01.703Z,16.30
2018-12-17T14:18:36.391Z,15.63
2018-12-17T14:21:10.868Z,13.27
2018-12-17T14:23:40.163Z,15.37
2018-12-17T14:26:09.848Z,17.07
2018-12-17T14:28:38.919Z,16.77
2018-12-17T14:31:07.970Z,20.53
2018-12-17T14:33:37.335Z,16.43
2018-12-17T14:36:08.825Z,15.67
2018-12-17T14:38:38.882Z,16.23
2018-12-17T14:41:08.037Z,16.20
2018-12-17T14:43:37.021Z,16.63
2018-12-17T14:46:06.768Z,17.50
2018-12-17T14:48:35.778Z,19.00
2018-12-17T14:51:05.339Z,18.40
2018-12-17T14:53:34.619Z,18.60
2018-12-17T14:56:03.788Z,17.07
2018-12-17T14:58:32.979Z,19.30
2018-12-17T15:01:02.141Z,18.47
2018-12-17T15:03:38.413Z,17.47
2018-12-17T15:06:07.715Z,18.87
2018-12-17T15:08:36.866Z,18.13
2018-12-17T15:11:06.351Z,19.20
2018-12-17T15:13:38.541Z,17.40
2018-12-17T15:16:08.104Z,16.93
2018-12-17T15:18:37.106Z,21.10
2018-12-17T15:21:07.236Z,19.33
2018-12-17T15:23:37.221Z,21.73
2018-12-17T15:26:06.326Z,22.07
2018-12-17T15:28:36.223Z,23.40
2018-12-17T15:31:05.791Z,21.73
2018-12-17T15:33:34.844Z,21.63
2018-12-17T15:36:04.136Z,20.60
2018-12-17T15:38:33.529Z,23.43
2018-12-17T15:41:02.641Z,20.90
2018-12-17T15:43:32.877Z,22.20
2018-12-17T15:46:01.980Z,20.87
2018-12-17T15:48:31.643Z,21.20
2018-12-17T15:51:02.858Z,20.93
2018-12-17T15:53:32.409Z,20.73
2018-12-17T15:56:01.759Z,21.53
2018-12-17T15:58:31.249Z,25.33
2018-12-17T16:01:00.441Z,22.57
2018-12-17T16:03:30.538Z,32.50
2018-12-17T16:05:59.506Z,41.23
2018-12-17T16:08:29.019Z,33.83
2018-12-17T16:10:58.350Z,31.73
2018-12-17T16:13:27.498Z,30.03
2018-12-17T16:15:57.063Z,26.47
2018-12-17T16:18:26.525Z,25.10
2018-12-17T16:20:55.611Z,22.40
2018-12-17T16:23:25.123Z,21.13
2018-12-17T16:25:54.398Z,22.20
2018-12-17T16:28:23.558Z,25.37
2018-12-17T16:30:52.815Z,23.53
2018-12-17T16:33:22.072Z,25.57
2018-12-17T16:35:52.486Z,24.33
2018-12-17T16:38:21.588Z,29.53
2018-12-17T16:40:50.879Z,31.00
2018-12-17T16:43:20.127Z,26.13
2018-12-17T16:45:49.393Z,25.77
2018-12-17T16:48:18.891Z,23.97
2018-12-17T16:50:48.178Z,28.00
2018-12-17T16:53:17.599Z,22.80
2018-12-17T16:55:47.118Z,19.87
2018-12-17T16:58:16.700Z,21.07
2018-12-17T17:00:46.223Z,30.43
2018-12-17T17:03:15.782Z,25.57
2018-12-17T17:05:45.158Z,22.93
2018-12-17T17:08:14.554Z,19.67
2018-12-17T17:10:44.047Z,23.10
2018-12-17T17:13:13.361Z,23.90
2018-12-17T17:15:42.820Z,19.40
2018-12-17T17:18:11.970Z,18.57
2018-12-17T17:20:41.300Z,22.67
2018-12-17T17:23:10.593Z,19.50
2018-12-17T17:25:39.687Z,19.27
2018-12-17T17:28:08.753Z,20.03
2018-12-17T17:30:37.869Z,19.70
2018-12-17T17:33:07.188Z,18.13
2018-12-17T17:35:37.040Z,19.97
2018-12-17T17:38:06.549Z,22.23
2018-12-17T17:40:35.734Z,19.10
2018-12-17T17:43:04.821Z,25.30
2018-12-17T17:45:36.053Z,23.70
2018-12-17T17:48:05.126Z,24.43
2018-12-17T17:50:34.560Z,23.27
2018-12-17T17:53:03.703Z,22.70
2018-12-17T17:55:32.848Z,26.03
2018-12-17T17:58:01.874Z,20.93
2018-12-17T18:00:31.071Z,20.23
2018-12-17T18:03:00.035Z,22.27
2018-12-17T18:05:29.223Z,25.27
2018-12-17T18:07:58.209Z,23.13
2018-12-17T18:10:27.292Z,22.23
2018-12-17T18:12:56.673Z,22.97
2018-12-17T18:15:25.891Z,23.77
2018-12-17T18:17:54.880Z,21.53
2018-12-17T18:20:24.054Z,24.13
2018-12-17T18:22:53.076Z,22.80
2018-12-17T18:25:22.428Z,21.90
2018-12-17T18:27:51.872Z,22.37
2018-12-17T18:30:21.250Z,23.40
2018-12-17T18:32:50.991Z,19.43
2018-12-17T18:35:20.102Z,21.53
2018-12-17T18:37:49.153Z,21.83
2018-12-17T18:40:18.285Z,23.63
2018-12-17T18:42:47.610Z,42.40
2018-12-17T18:45:16.677Z,38.47
2018-12-17T18:47:45.743Z,28.10
2018-12-17T18:50:14.858Z,28.67
2018-12-17T18:52:43.755Z,35.60
2018-12-17T18:55:12.967Z,36.10
2018-12-17T18:57:42.483Z,27.50
2018-12-17T19:00:11.933Z,25.20
2018-12-17T19:02:41.028Z,22.53
2018-12-17T19:05:10.224Z,22.40
2018-12-17T19:07:39.254Z,20.07
2018-12-17T19:10:08.659Z,18.80
2018-12-17T19:12:37.756Z,18.47
2018-12-17T19:15:07.060Z,19.23
2018-12-17T19:17:36.312Z,19.87
2018-12-17T19:20:05.794Z,19.47
2018-12-17T19:22:34.902Z,18.17
2018-12-17T19:25:04.779Z,24.63
2018-12-17T19:27:33.825Z,25.10
2018-12-17T19:30:03.353Z,23.80
2018-12-17T19:32:32.707Z,22.93
2018-12-17T19:35:04.528Z,21.37
2018-12-17T19:37:33.739Z,23.87
2018-12-17T19:40:02.875Z,23.73
2018-12-17T19:42:32.065Z,22.60
2018-12-17T19:45:01.111Z,21.80
2018-12-17T19:47:30.283Z,24.47
2018-12-17T19:49:59.573Z,24.40
2018-12-17T19:52:28.602Z,25.13
2018-12-17T19:54:57.740Z,26.27
2018-12-17T19:57:26.930Z,23.63
2018-12-17T19:59:56.742Z,27.93
2018-12-17T20:02:25.759Z,24.13
2018-12-17T20:04:55.054Z,26.57
2018-12-17T20:07:24.055Z,29.57
2018-12-17T20:09:53.205Z,34.03
2018-12-17T20:12:22.309Z,35.63
2018-12-17T20:14:51.297Z,43.43
2018-12-17T20:17:20.448Z,34.80
2018-12-17T20:19:49.437Z,29.33
2018-12-17T20:22:18.601Z,29.23
2018-12-17T20:24:47.755Z,33.30
2018-12-17T20:27:17.268Z,31.23
2018-12-17T20:29:50.381Z,34.27
2018-12-17T20:32:17.984Z,32.70
2018-12-17T20:34:46.982Z,33.23
2018-12-17T20:37:18.678Z,27.03
2018-12-17T20:39:47.859Z,29.80
2018-12-17T20:42:17.434Z,28.80
2018-12-17T20:44:46.529Z,26.20
2018-12-17T20:47:15.547Z,29.73
2018-12-17T20:49:45.166Z,25.10
2018-12-17T20:52:14.571Z,23.30
2018-12-17T20:54:43.823Z,26.07
2018-12-17T20:57:14.072Z,43.00
2018-12-17T20:59:43.235Z,36.30
2018-12-17T21:02:12.578Z,63.67
2018-12-17T21:04:43.361Z,42.23
2018-12-17T21:07:12.699Z,40.97
2018-12-17T21:09:41.865Z,22.97
2018-12-17T21:12:11.022Z,21.83
2018-12-17T21:14:40.726Z,23.47
2018-12-17T21:17:10.296Z,24.37
2018-12-17T21:19:39.330Z,39.60
2018-12-17T21:22:10.906Z,31.80
2018-12-17T21:24:41.291Z,45.20
2018-12-17T21:27:10.584Z,27.47
2018-12-17T21:29:39.720Z,38.23
2018-12-17T21:32:08.826Z,28.93
2018-12-17T21:34:38.121Z,30.73
2018-12-17T21:37:07.369Z,27.70
2018-12-17T21:39:36.835Z,22.57
2018-12-17T21:42:06.092Z,27.53
2018-12-17T21:44:35.718Z,22.87
2018-12-17T21:47:04.703Z,25.53
2018-12-17T21:49:33.753Z,20.23
2018-12-17T21:52:03.269Z,19.60
2018-12-17T21:54:32.339Z,22.90
2018-12-17T21:57:01.644Z,18.40
2018-12-17T21:59:31.000Z,22.03
2018-12-17T22:02:00.040Z,18.63
2018-12-17T22:04:29.000Z,20.37
2018-12-17T22:06:58.102Z,21.23
2018-12-17T22:09:27.279Z,17.93
2018-12-17T22:11:56.291Z,19.93
2018-12-17T22:14:25.425Z,18.17
2018-12-17T22:16:54.575Z,24.63
2018-12-17T22:19:24.137Z,18.83
2018-12-17T22:21:53.385Z,18.30
2018-12-17T22:24:22.993Z,13.97
2018-12-17T22:26:52.177Z,13.53
2018-12-17T22:29:21.629Z,11.23
2018-12-17T22:31:50.689Z,13.67
2018-12-17T22:34:19.622Z,11.10
2018-12-17T22:36:48.646Z,11.70
2018-12-17T22:39:17.634Z,14.50
2018-12-17T22:41:46.714Z,14.30
2018-12-17T22:44:15.967Z,16.13
2018-12-17T22:46:44.960Z,13.23
2018-12-17T22:49:13.921Z,10.53
2018-12-17T22:51:42.886Z,11.13
2018-12-17T22:54:11.952Z,8.93
2018-12-17T22:56:40.944Z,9.43
2018-12-17T22:59:09.905Z,9.07
2018-12-17T23:01:38.939Z,10.10
2018-12-17T23:04:08.176Z,16.47
2018-12-17T23:06:37.473Z,12.13
2018-12-17T23:09:07.102Z,12.50
2018-12-17T23:11:52.934Z,13.03
2018-12-17T23:14:33.353Z,15.47
2018-12-17T23:17:14.044Z,16.30
2018-12-17T23:19:45.206Z,11.67
2018-12-17T23:22:14.292Z,10.07
2018-12-17T23:24:43.331Z,10.17
2018-12-17T23:27:12.673Z,9.67
2018-12-17T23:29:41.779Z,10.50
2018-12-17T23:32:10.885Z,10.63
2018-12-17T23:34:39.974Z,12.50
2018-12-17T23:37:09.073Z,10.67
2018-12-17T23:39:38.260Z,11.43
2018-12-17T23:42:07.554Z,13.37
2018-12-17T23:44:37.097Z,11.87
2018-12-17T23:47:06.150Z,13.03
2018-12-17T23:49:35.387Z,12.93
2018-12-17T23:52:04.429Z,12.80
2018-12-17T23:54:33.450Z,12.13
2018-12-17T23:57:02.529Z,14.90
2018-12-17T23:59:31.595Z,11.70
